Time;durP1;ratioP1;P1;durP2;ratioP2;P2;SDS_P1;SDS_P2;PMS_P1;PMS_P2;Temp;Humidity;BMP_temperature;BMP_pressure;BME280_temperature;BME280_humidity;BME280_pressure;Samples;Min_cycle;Max_cycle;Signal;HPM_P1;HPM_P2
2022/04/01 00:02:06;;;;;;;;;;;;;;;8.30;70.49;90389.72;2054583;70;20566;-73
2022/04/01 00:04:32;;;;;;;;;;;;;;;8.22;71.11;90389.44;2067410;69;20062;-73
2022/04/01 00:06:58;;;;;;;;;;;;;;;8.23;71.90;90390.88;2054709;70;20046;-72
2022/04/01 00:09:24;;;;;;;;;;;;;;;8.39;70.91;90385.81;2054065;70;20063;-72
2022/04/01 00:11:51;;;;;;;;;;;;;;;8.42;70.79;90377.47;2054827;70;20043;-73
2022/04/01 00:14:17;;;;;;;;;;;;;;;8.47;70.80;90376.22;2054092;69;20063;-72
2022/04/01 00:16:42;;;;;;;;;;;;;;;8.54;69.54;90389.06;2048500;70;20075;-73
2022/04/01 00:19:08;;;;;;;;;;;;;;;8.40;68.84;90383.72;2048310;70;20102;-73
2022/04/01 00:21:34;;;;;;;;;;;;;;;8.44;70.53;90381.06;2047846;70;20059;-73
2022/04/01 00:23:59;;;;;;;;;;;;;;;8.33;71.48;90382.06;2048463;70;20054;-73
2022/04/01 00:26:25;;;;;;;;;;;;;;;8.43;71.13;90381.69;2048530;70;20050;-73
2022/04/01 00:28:51;;;;;;;;;;;;;;;8.36;71.83;90389.91;2048804;70;20496;-74
2022/04/01 00:31:16;;;;;;;;;;;;;;;8.45;71.39;90393.69;2049135;70;20047;-74
2022/04/01 00:33:42;;;;;;;;;;;;;;;8.44;71.00;90397.16;2048469;70;20051;-73
2022/04/01 00:36:08;;;;;;;;;;;;;;;8.42;71.25;90391.47;2045621;70;20047;-73
2022/04/01 00:38:34;;;;;;;;;;;;;;;8.37;71.04;90388.53;2049050;70;20136;-73
2022/04/01 00:40:59;;;;;;;;;;;;;;;8.03;73.66;90385.34;2048551;70;20059;-72
2022/04/01 00:43:27;;;;;;;;;;;;;;;8.14;72.61;90381.47;2046107;70;20055;-73
2022/04/01 00:45:53;;;;;;;;;;;;;;;8.02;72.98;90381.09;2045516;70;20103;-73
2022/04/01 00:48:19;;;;;;;;;;;;;;;8.27;71.93;90379.78;2047940;70;20099;-73
2022/04/01 00:50:45;;;;;;;;;;;;;;;8.30;72.18;90377.78;2047388;70;20154;-74
2022/04/01 00:53:11;;;;;;;;;;;;;;;8.11;72.70;90384.88;2047210;69;20063;-73
2022/04/01 00:55:37;;;;;;;;;;;;;;;8.21;72.18;90381.69;2048370;70;20067;-73
2022/04/01 00:58:04;;;;;;;;;;;;;;;8.27;71.98;90384.69;2048109;70;20156;-73
2022/04/01 01:00:30;;;;;;;;;;;;;;;8.34;71.03;90380.72;2046507;70;20512;-73
2022/04/01 01:02:57;;;;;;;;;;;;;;;8.27;71.13;90374.19;2047984;70;20062;-74
2022/04/01 01:05:23;;;;;;;;;;;;;;;8.21;71.44;90376.09;2047764;70;20051;-74
2022/04/01 01:07:49;;;;;;;;;;;;;;;8.14;70.53;90377.97;2047173;70;20080;-73
2022/04/01 01:10:16;;;;;;;;;;;;;;;7.99;73.42;90374.00;2048394;70;20047;-73
2022/04/01 01:12:43;;;;;;;;;;;;;;;8.01;72.51;90378.94;2049458;69;20087;-74
2022/04/01 01:15:10;;;;;;;;;;;;;;;7.78;72.96;90377.47;2054152;70;20101;-75
2022/04/01 01:17:37;;;;;;;;;;;;;;;7.93;73.01;90375.88;2052301;70;20132;-74
2022/04/01 01:20:12;;;;;;;;;;;;;;;7.99;72.09;90374.00;2066362;69;20066;-74
2022/04/01 01:22:39;;;;;;;;;;;;;;;8.01;72.70;90373.31;2067781;69;20065;-74
2022/04/01 01:25:07;;;;;;;;;;;;;;;7.91;73.34;90379.31;2065013;69;20563;-73
2022/04/01 01:27:33;;;;;;;;;;;;;;;8.07;72.12;90373.53;2051839;70;20050;-74
2022/04/01 01:30:00;;;;;;;;;;;;;;;8.07;72.45;90377.06;2064959;69;20057;-74
2022/04/01 01:32:28;;;;;;;;;;;;;;;8.09;72.67;90377.13;2051805;70;20078;-74
2022/04/01 01:34:54;;;;;;;;;;;;;;;8.16;71.61;90378.03;2050863;70;20506;-74
2022/04/01 01:37:20;;;;;;;;;;;;;;;7.95;72.89;90367.53;2051613;70;20162;-74
2022/04/01 01:39:47;;;;;;;;;;;;;;;7.66;72.94;90368.69;2052185;69;20146;-74
2022/04/01 01:42:13;;;;;;;;;;;;;;;8.07;71.25;90365.13;2064619;69;20051;-74
2022/04/01 01:44:38;;;;;;;;;;;;;;;8.08;72.25;90363.75;2064945;69;20047;-74
2022/04/01 01:47:06;;;;;;;;;;;;;;;7.94;72.49;90368.91;2065141;69;20058;-74
2022/04/01 01:49:35;;;;;;;;;;;;;;;7.99;71.86;90362.06;2052121;70;20074;-74
2022/04/01 01:54:50;;;;;;;;;;;;;;;7.96;72.45;90360.56;2052193;70;20136;-74
2022/04/01 01:57:24;;;;;;;;;;;;;;;7.93;72.56;90359.78;2065257;69;20568;-73
2022/04/01 01:59:55;;;;;;;;;;;;;;;8.05;71.82;90360.16;2064812;69;20137;-74
2022/04/01 02:02:21;;;;;;;;;;;;;;;8.10;71.75;90358.22;2064111;69;20078;-74
2022/04/01 02:04:47;;;;;;;;;;;;;;;8.04;71.17;90360.81;2051296;70;20068;-73
2022/04/01 02:07:13;;;;;;;;;;;;;;;7.54;74.27;90364.09;2064071;69;20055;-74
2022/04/01 02:09:40;;;;;;;;;;;;;;;7.74;71.91;90361.25;2063507;69;20063;-74
2022/04/01 02:12:06;;;;;;;;;;;;;;;7.84;69.96;90358.09;2051285;70;20605;-74
2022/04/01 02:14:34;;;;;;;;;;;;;;;7.72;72.47;90357.69;2047725;69;20162;-74
2022/04/01 02:17:01;;;;;;;;;;;;;;;7.92;71.52;90358.34;2044677;70;20100;-74
2022/04/01 02:19:26;;;;;;;;;;;;;;;7.88;71.97;90356.16;2044216;70;20047;-74
2022/04/01 02:21:53;;;;;;;;;;;;;;;7.89;71.89;90360.38;2044141;70;20055;-74
2022/04/01 02:24:23;;;;;;;;;;;;;;;7.98;70.19;90347.34;2044116;70;20144;-74
2022/04/01 02:26:51;;;;;;;;;;;;;;;8.07;70.93;90351.84;2045367;70;20614;-73
2022/04/01 02:29:19;;;;;;;;;;;;;;;8.02;71.94;90349.56;2045002;69;20055;-73
2022/04/01 02:32:03;;;;;;;;;;;;;;;8.02;71.87;90349.56;2045312;70;20575;-74
2022/04/01 02:34:52;;;;;;;;;;;;;;;7.98;72.71;90349.44;2044546;70;20061;-72
2022/04/01 02:37:20;;;;;;;;;;;;;;;8.04;71.47;90353.13;2045107;70;20047;-72
2022/04/01 02:39:46;;;;;;;;;;;;;;;7.90;73.08;90353.41;2045699;70;20058;-72
2022/04/01 02:42:12;;;;;;;;;;;;;;;8.06;71.88;90349.69;2044995;70;20055;-73
2022/04/01 02:44:38;;;;;;;;;;;;;;;8.18;70.79;90361.28;2044532;70;20057;-72
2022/04/01 02:47:03;;;;;;;;;;;;;;;7.97;71.59;90359.94;2042037;70;20194;-73
2022/04/01 02:49:29;;;;;;;;;;;;;;;8.03;70.40;90348.91;2045104;70;20090;-73
2022/04/01 02:52:00;;;;;;;;;;;;;;;8.04;71.60;90355.22;2041733;70;20142;-73
2022/04/01 02:54:26;;;;;;;;;;;;;;;8.08;71.93;90353.28;2045173;70;20509;-73
2022/04/01 02:56:54;;;;;;;;;;;;;;;8.05;71.32;90354.56;2045243;70;20063;-73
2022/04/01 02:59:20;;;;;;;;;;;;;;;8.05;71.06;90357.38;2045042;70;20106;-73
2022/04/01 03:01:45;;;;;;;;;;;;;;;8.05;71.05;90348.97;2045228;70;20129;-73
2022/04/01 03:04:11;;;;;;;;;;;;;;;8.02;71.06;90349.56;2042439;70;20051;-74
2022/04/01 03:06:50;;;;;;;;;;;;;;;8.02;70.75;90349.56;2045734;70;20138;-73
2022/04/01 03:09:15;;;;;;;;;;;;;;;8.00;70.99;90346.69;2045133;70;20146;-73
2022/04/01 03:11:49;;;;;;;;;;;;;;;7.92;71.61;90346.41;2045227;70;20047;-73
2022/04/01 03:14:37;;;;;;;;;;;;;;;7.89;71.71;90354.78;2060193;69;20045;-74
2022/04/01 03:17:21;;;;;;;;;;;;;;;7.90;71.76;90352.69;2068515;69;20444;-74
2022/04/01 03:19:47;;;;;;;;;;;;;;;7.89;71.47;90354.78;2067945;69;20052;-73
2022/04/01 03:22:12;;;;;;;;;;;;;;;7.95;71.19;90353.53;2067956;69;20053;-72
2022/04/01 03:24:38;;;;;;;;;;;;;;;7.83;72.13;90356.63;2067940;69;20465;-73
2022/04/01 03:27:04;;;;;;;;;;;;;;;7.62;72.65;90355.25;2067967;69;20079;-73
2022/04/01 03:29:32;;;;;;;;;;;;;;;7.77;72.05;90353.66;2067806;69;20198;-73
2022/04/01 03:31:58;;;;;;;;;;;;;;;7.90;71.59;90352.69;2067908;69;20151;-73
2022/04/01 03:34:24;;;;;;;;;;;;;;;7.81;72.18;90356.59;2067911;69;20053;-73
2022/04/01 03:36:50;;;;;;;;;;;;;;;7.78;71.80;90347.38;2068002;69;20482;-73
2022/04/01 03:39:17;;;;;;;;;;;;;;;7.81;71.38;90350.97;2067955;69;20405;-73
2022/04/01 03:41:49;;;;;;;;;;;;;;;7.77;71.80;90354.34;2067912;69;20446;-73
2022/04/01 03:44:15;;;;;;;;;;;;;;;7.83;70.36;90353.84;2067869;69;20040;-73
2022/04/01 03:46:52;;;;;;;;;;;;;;;7.87;70.43;90351.16;2068550;69;20085;-73
2022/04/01 03:49:24;;;;;;;;;;;;;;;7.87;70.53;90351.88;2068979;69;20037;-73
2022/04/01 03:51:54;;;;;;;;;;;;;;;7.93;71.16;90359.06;2068382;69;20413;-73
2022/04/01 03:54:22;;;;;;;;;;;;;;;7.89;70.76;90357.56;2068397;69;20056;-74
2022/04/01 03:57:03;;;;;;;;;;;;;;;7.81;69.22;90354.50;2068964;69;20052;-73
2022/04/01 03:59:50;;;;;;;;;;;;;;;7.89;69.69;90360.38;2068860;69;20246;-73
2022/04/01 04:02:35;;;;;;;;;;;;;;;7.89;70.02;90357.56;2068935;69;20152;-73
2022/04/01 04:05:01;;;;;;;;;;;;;;;7.72;71.62;90363.28;2065570;69;20069;-74
2022/04/01 04:07:29;;;;;;;;;;;;;;;7.81;70.17;90356.59;2068325;69;20053;-73
2022/04/01 04:09:56;;;;;;;;;;;;;;;7.86;70.50;90363.75;2068332;69;20148;-73
2022/04/01 04:12:25;;;;;;;;;;;;;;;7.88;69.99;90367.34;2068445;69;20060;-72
2022/04/01 04:15:02;;;;;;;;;;;;;;;7.92;69.65;90375.16;2068213;69;20146;-73
2022/04/01 04:17:37;;;;;;;;;;;;;;;7.92;67.48;90363.94;2068329;69;20052;-73
2022/04/01 04:20:08;;;;;;;;;;;;;;;7.77;70.33;90368.38;2065523;69;20077;-72
2022/04/01 04:22:55;;;;;;;;;;;;;;;7.79;69.81;90370.50;2068328;69;20057;-73
2022/04/01 04:25:22;;;;;;;;;;;;;;;7.81;70.67;90370.59;2068406;69;20444;-72
2022/04/01 04:27:58;;;;;;;;;;;;;;;7.84;69.93;90370.00;2068329;69;20485;-72
2022/04/01 04:30:30;;;;;;;;;;;;;;;7.78;70.51;90361.38;2068198;69;20064;-73
2022/04/01 04:33:21;;;;;;;;;;;;;;;7.67;71.31;90368.03;2068782;69;20095;-74
2022/04/01 04:35:48;;;;;;;;;;;;;;;7.45;72.53;90361.66;2065476;69;20613;-73
2022/04/01 04:38:16;;;;;;;;;;;;;;;7.72;69.85;90369.59;2068285;69;20041;-74
2022/04/01 04:40:42;;;;;;;;;;;;;;;7.68;70.95;90366.66;2068327;69;20072;-73
2022/04/01 04:43:12;;;;;;;;;;;;;;;7.67;70.03;90375.72;2068847;69;20084;-73
2022/04/01 04:45:39;;;;;;;;;;;;;;;7.69;69.81;90370.88;2068076;69;20057;-74
2022/04/01 04:48:06;;;;;;;;;;;;;;;7.69;70.17;90372.97;2068256;69;20069;-74
2022/04/01 04:50:32;;;;;;;;;;;;;;;7.52;71.08;90377.31;2068767;69;20045;-74
2022/04/01 04:52:58;;;;;;;;;;;;;;;7.67;67.28;90370.13;2068789;69;20049;-74
2022/04/01 04:55:24;;;;;;;;;;;;;;;7.68;69.24;90382.75;2068067;69;20048;-74
2022/04/01 04:58:17;;;;;;;;;;;;;;;7.58;69.23;90381.03;2068327;69;20084;-74
2022/04/01 05:00:53;;;;;;;;;;;;;;;7.68;69.52;90383.47;2065511;69;20083;-74
2022/04/01 05:03:49;;;;;;;;;;;;;;;7.77;67.93;90382.38;2068246;69;20489;-74
2022/04/01 05:06:16;;;;;;;;;;;;;;;7.70;69.10;90389.13;2068197;69;20052;-74
2022/04/01 05:09:25;;;;;;;;;;;;;;;7.66;69.76;90394.59;2064501;69;20227;-74
2022/04/01 05:12:05;;;;;;;;;;;;;;;7.64;69.42;90394.50;2064462;69;20045;-74
2022/04/01 05:15:04;;;;;;;;;;;;;;;7.56;70.88;90397.78;2047306;69;20497;-74
2022/04/01 05:17:56;;;;;;;;;;;;;;;7.63;70.52;90395.88;2048830;70;20197;-74
2022/04/01 05:20:28;;;;;;;;;;;;;;;7.59;70.91;90413.25;2046217;70;20487;-73
2022/04/01 05:22:55;;;;;;;;;;;;;;;7.56;70.71;90413.81;2048703;70;20055;-73
2022/04/01 05:25:24;;;;;;;;;;;;;;;7.55;71.36;90410.31;2048745;69;20070;-73
2022/04/01 05:27:53;;;;;;;;;;;;;;;7.62;70.32;90403.56;2048671;70;20143;-74
2022/04/01 05:30:25;;;;;;;;;;;;;;;7.65;71.12;90407.16;2048551;69;20047;-73
2022/04/01 05:33:06;;;;;;;;;;;;;;;7.68;70.80;90408.66;2048793;70;20051;-73
2022/04/01 05:35:37;;;;;;;;;;;;;;;7.70;70.98;90414.34;2049219;70;20487;-73
2022/04/01 05:38:04;;;;;;;;;;;;;;;7.70;71.33;90413.59;2045903;69;20078;-73
2022/04/01 05:40:30;;;;;;;;;;;;;;;7.72;69.19;90416.50;2048653;70;20047;-73
2022/04/01 05:42:58;;;;;;;;;;;;;;;7.73;71.21;90418.63;2048649;70;20059;-74
2022/04/01 05:45:46;;;;;;;;;;;;;;;7.86;67.44;90423.28;2048516;70;20055;-73
2022/04/01 05:48:15;;;;;;;;;;;;;;;7.66;70.96;90419.81;2048661;69;20430;-73
2022/04/01 05:50:41;;;;;;;;;;;;;;;7.19;74.36;90417.41;2049152;70;20147;-73
2022/04/01 05:53:09;;;;;;;;;;;;;;;7.28;73.06;90414.25;2048610;70;20150;-74
2022/04/01 05:55:45;;;;;;;;;;;;;;;7.42;73.30;90411.25;2048627;70;20058;-73
2022/04/01 05:58:10;;;;;;;;;;;;;;;7.69;71.71;90421.28;2048615;70;20055;-74
2022/04/01 06:00:41;;;;;;;;;;;;;;;7.63;72.02;90426.69;2048438;70;20117;-73
2022/04/01 06:03:26;;;;;;;;;;;;;;;7.61;72.41;90432.94;2048690;70;20094;-74
2022/04/01 06:05:55;;;;;;;;;;;;;;;7.72;72.31;90431.19;2048450;70;20081;-73
2022/04/01 06:08:39;;;;;;;;;;;;;;;7.96;70.27;90439.72;2048538;70;20180;-73
2022/04/01 06:11:06;;;;;;;;;;;;;;;7.97;70.94;90426.41;2048599;70;20514;-73
2022/04/01 06:14:33;;;;;;;;;;;;;;;8.06;70.74;90423.25;2051150;70;20491;-74
2022/04/01 06:17:30;;;;;;;;;;;;;;;8.17;68.48;90427.09;2042882;70;20165;-74
2022/04/01 06:19:56;;;;;;;;;;;;;;;8.28;70.25;90425.34;2052553;70;20047;-74
2022/04/01 06:22:25;;;;;;;;;;;;;;;7.87;71.57;90430.31;2065313;69;20085;-74
2022/04/01 06:24:55;;;;;;;;;;;;;;;8.04;70.82;90433.69;2065349;69;20062;-74
2022/04/01 06:27:25;;;;;;;;;;;;;;;8.21;70.05;90437.75;2065354;69;20093;-74
2022/04/01 06:30:09;;;;;;;;;;;;;;;8.39;69.59;90433.47;2065228;69;20058;-74
2022/04/01 06:32:54;;;;;;;;;;;;;;;8.80;61.79;90428.44;2046359;70;20609;-74
2022/04/01 06:35:38;;;;;;;;;;;;;;;8.79;67.96;90426.97;2068146;69;20539;-74
2022/04/01 06:38:13;;;;;;;;;;;;;;;9.02;67.35;90437.50;2065343;69;20073;-74
2022/04/01 06:40:58;;;;;;;;;;;;;;;9.06;68.15;90448.13;2049040;70;20482;-74
2022/04/01 06:43:34;;;;;;;;;;;;;;;9.03;64.86;90449.47;2065314;69;20059;-74
2022/04/01 06:46:18;;;;;;;;;;;;;;;9.04;65.23;90457.22;2052276;70;20058;-74
2022/04/01 06:48:52;;;;;;;;;;;;;;;9.32;65.32;90460.16;2047669;69;20078;-73
2022/04/01 06:51:37;;;;;;;;;;;;;;;9.32;65.61;90459.44;2052478;70;20545;-74
2022/04/01 06:54:21;;;;;;;;;;;;;;;9.43;63.40;90456.25;2052334;70;20050;-74
2022/04/01 06:57:05;;;;;;;;;;;;;;;9.37;64.79;90455.38;2052388;70;20139;-74
2022/04/01 06:59:51;;;;;;;;;;;;;;;9.37;63.62;90458.88;2052135;70;20470;-74
2022/04/01 07:02:17;;;;;;;;;;;;;;;9.43;63.60;90452.72;2052355;70;20055;-75
2022/04/01 07:04:42;;;;;;;;;;;;;;;9.40;62.86;90456.88;2052224;70;20349;-75
2022/04/01 07:07:08;;;;;;;;;;;;;;;9.47;61.18;90446.50;2052444;70;20085;-76
2022/04/01 07:09:35;;;;;;;;;;;;;;;9.50;62.23;90450.81;2065252;69;20501;-74
2022/04/01 07:12:01;;;;;;;;;;;;;;;9.55;59.01;90443.94;2052306;70;20499;-75
2022/04/01 07:14:27;;;;;;;;;;;;;;;9.72;59.44;90448.63;2052181;70;20089;-75
2022/04/01 07:16:53;;;;;;;;;;;;;;;9.68;62.76;90449.25;2065205;69;20070;-73
2022/04/01 07:19:19;;;;;;;;;;;;;;;9.63;62.86;90441.38;2052109;70;20120;-73
2022/04/01 07:21:44;;;;;;;;;;;;;;;9.71;63.00;90440.84;2052250;70;20059;-74
2022/04/01 07:24:10;;;;;;;;;;;;;;;9.67;62.87;90435.88;2052234;69;20055;-74
2022/04/01 07:26:36;;;;;;;;;;;;;;;9.68;59.05;90435.19;2052199;70;20051;-75
2022/04/01 07:29:01;;;;;;;;;;;;;;;9.73;61.44;90440.94;2052161;70;20077;-74
2022/04/01 07:34:12;;;;;;;;;;;;;;;9.98;61.73;90439.47;2052211;70;20165;-74
2022/04/01 07:36:38;;;;;;;;;;;;;;;10.10;63.43;90440.53;2065290;69;20137;-74
2022/04/01 07:39:03;;;;;;;;;;;;;;;10.27;58.17;90443.78;2052237;70;20090;-75
2022/04/01 07:41:34;;;;;;;;;;;;;;;10.36;58.37;90439.81;2052330;70;20434;-74
2022/04/01 07:44:01;;;;;;;;;;;;;;;10.40;58.85;90449.06;2065057;69;20556;-75
2022/04/01 07:46:26;;;;;;;;;;;;;;;10.57;57.61;90438.19;2052224;70;20053;-76
2022/04/01 07:48:52;;;;;;;;;;;;;;;9.23;55.80;90452.84;2048973;69;20059;-77
2022/04/01 07:51:18;;;;;;;;;;;;;;;8.92;59.64;90440.00;2052253;70;20107;-75
2022/04/01 07:53:43;;;;;;;;;;;;;;;8.27;62.15;90444.25;2052186;70;20058;-74
2022/04/01 07:56:09;;;;;;;;;;;;;;;9.05;59.94;90452.31;2052184;70;20053;-76
2022/04/01 07:58:34;;;;;;;;;;;;;;;8.66;59.98;90453.94;2052167;70;20087;-76
2022/04/01 08:01:00;;;;;;;;;;;;;;;9.10;61.21;90448.97;2052122;70;20067;-75
2022/04/01 08:03:25;;;;;;;;;;;;;;;9.41;58.36;90459.00;2052167;69;20142;-76
2022/04/01 08:05:51;;;;;;;;;;;;;;;9.74;58.36;90451.50;2052099;70;20079;-76
2022/04/01 08:08:19;;;;;;;;;;;;;;;9.98;57.47;90457.06;2052161;70;20057;-75
2022/04/01 08:10:44;;;;;;;;;;;;;;;9.91;57.91;90459.00;2065184;69;20080;-76
2022/04/01 08:13:11;;;;;;;;;;;;;;;10.03;57.61;90458.59;2052073;69;20467;-75
2022/04/01 08:15:37;;;;;;;;;;;;;;;10.01;58.19;90461.38;2052029;69;20138;-76
2022/04/01 08:18:02;;;;;;;;;;;;;;;9.98;57.25;90476.00;2065120;69;20149;-75
2022/04/01 08:20:28;;;;;;;;;;;;;;;10.09;57.56;90472.81;2052165;70;20106;-76
2022/04/01 08:22:53;;;;;;;;;;;;;;;10.17;55.83;90478.66;2052248;70;20108;-74
2022/04/01 08:25:19;;;;;;;;;;;;;;;9.94;57.44;90476.63;2052081;70;20062;-75
2022/04/01 08:27:44;;;;;;;;;;;;;;;9.49;55.84;90474.66;2052093;70;20062;-74
2022/04/01 08:30:10;;;;;;;;;;;;;;;10.00;55.82;90479.59;2052899;69;20051;-76
2022/04/01 08:32:37;;;;;;;;;;;;;;;9.47;53.77;90483.03;2052810;69;20506;-76
2022/04/01 08:35:03;;;;;;;;;;;;;;;9.54;53.52;90479.03;2052599;69;20058;-76
2022/04/01 08:37:29;;;;;;;;;;;;;;;9.49;51.79;90491.53;2052832;70;20062;-77
2022/04/01 08:39:55;;;;;;;;;;;;;;;8.74;52.37;90481.50;2052591;69;20487;-74
2022/04/01 08:42:20;;;;;;;;;;;;;;;9.07;51.80;90483.97;2065608;69;20054;-77
2022/04/01 08:44:46;;;;;;;;;;;;;;;9.71;52.34;90494.22;2052367;70;20128;-75
2022/04/01 08:47:12;;;;;;;;;;;;;;;9.87;50.34;90495.41;2052553;70;20143;-77
2022/04/01 08:49:37;;;;;;;;;;;;;;;9.70;51.74;90499.13;2052595;70;20050;-78
2022/04/01 08:52:04;;;;;;;;;;;;;;;9.11;51.42;90495.31;2052536;70;20154;-79
2022/04/01 08:54:33;;;;;;;;;;;;;;;8.99;52.66;90494.22;2052588;69;20054;-76
2022/04/01 08:56:59;;;;;;;;;;;;;;;8.94;53.12;90499.00;2052651;70;20042;-77
2022/04/01 08:59:28;;;;;;;;;;;;;;;8.62;55.08;90502.19;2052439;70;20054;-77
2022/04/01 09:02:01;;;;;;;;;;;;;;;8.47;53.27;90497.47;2052586;70;20089;-75
2022/04/01 09:04:26;;;;;;;;;;;;;;;9.15;51.42;90501.03;2052558;70;20055;-76
2022/04/01 09:06:52;;;;;;;;;;;;;;;9.52;50.22;90516.19;2052643;70;20594;-75
2022/04/01 09:09:24;;;;;;;;;;;;;;;9.92;52.02;90513.81;2052551;70;20055;-76
2022/04/01 09:12:03;;;;;;;;;;;;;;;8.85;52.20;90520.47;2065404;69;20053;-76
2022/04/01 09:14:28;;;;;;;;;;;;;;;9.25;51.28;90525.19;2065339;69;20117;-76
2022/04/01 09:16:55;;;;;;;;;;;;;;;8.57;51.68;90527.97;2062698;69;20141;-75
2022/04/01 09:19:27;;;;;;;;;;;;;;;9.21;52.73;90536.28;2052520;70;20051;-76
2022/04/01 09:21:53;;;;;;;;;;;;;;;9.77;51.12;90528.84;2052553;69;20570;-76
2022/04/01 09:24:18;;;;;;;;;;;;;;;9.34;50.89;90527.56;2052479;70;20130;-76
2022/04/01 09:26:44;;;;;;;;;;;;;;;9.19;52.09;90530.63;2052562;70;20046;-75
2022/04/01 09:29:10;;;;;;;;;;;;;;;9.08;52.35;90529.59;2052388;69;20047;-76
2022/04/01 09:31:37;;;;;;;;;;;;;;;9.27;52.00;90542.81;2052443;70;20438;-78
2022/04/01 09:34:06;;;;;;;;;;;;;;;8.89;52.24;90547.94;2052485;69;20066;-77
2022/04/01 09:36:38;;;;;;;;;;;;;;;8.61;54.26;90544.91;2054474;70;20873;-74
2022/04/01 09:39:04;;;;;;;;;;;;;;;7.97;55.06;90542.03;2067308;69;20144;-75
2022/04/01 09:41:36;;;;;;;;;;;;;;;8.58;55.37;90537.81;2067817;69;20057;-76
2022/04/01 09:44:20;;;;;;;;;;;;;;;8.93;53.85;90536.81;2054817;70;20533;-77
2022/04/01 09:46:46;;;;;;;;;;;;;;;9.21;53.35;90545.44;2055187;69;20142;-77
2022/04/01 09:49:13;;;;;;;;;;;;;;;9.12;53.43;90540.94;2055116;69;20098;-75
2022/04/01 09:51:43;;;;;;;;;;;;;;;9.55;52.62;90551.38;2055186;70;20066;-75
2022/04/01 09:54:10;;;;;;;;;;;;;;;8.92;52.03;90543.81;2055087;70;20065;-77
2022/04/01 09:56:36;;;;;;;;;;;;;;;8.55;55.52;90551.03;2055042;69;20062;-73
2022/04/01 09:59:05;;;;;;;;;;;;;;;8.69;54.45;90547.97;2055004;69;20520;-75
2022/04/01 10:01:35;;;;;;;;;;;;;;;9.48;52.69;90541.31;2068186;69;20054;-75
2022/04/01 10:04:01;;;;;;;;;;;;;;;9.76;53.01;90546.34;2055071;70;20124;-75
2022/04/01 10:06:28;;;;;;;;;;;;;;;9.12;53.24;90543.75;2055768;70;20097;-75
2022/04/01 10:08:54;;;;;;;;;;;;;;;8.76;54.47;90544.03;2068883;69;20470;-75
2022/04/01 10:11:22;;;;;;;;;;;;;;;9.23;55.50;90544.78;2055097;69;20754;-77
2022/04/01 10:13:50;;;;;;;;;;;;;;;9.01;53.75;90542.00;2067980;69;20066;-77
2022/04/01 10:16:16;;;;;;;;;;;;;;;9.23;53.47;90541.97;2055206;70;20064;-77
2022/04/01 10:18:47;;;;;;;;;;;;;;;9.51;52.75;90536.50;2055559;69;20070;-75
2022/04/01 10:21:14;;;;;;;;;;;;;;;8.98;53.99;90540.47;2055270;70;20050;-75
2022/04/01 10:23:43;;;;;;;;;;;;;;;9.39;53.08;90531.97;2055353;70;20043;-78
2022/04/01 10:26:14;;;;;;;;;;;;;;;9.55;51.90;90539.44;2055168;70;20482;-75
2022/04/01 10:28:43;;;;;;;;;;;;;;;9.76;50.89;90530.22;2055372;70;20490;-75
2022/04/01 10:31:13;;;;;;;;;;;;;;;8.75;53.50;90539.03;2055162;70;20043;-75
2022/04/01 10:33:38;;;;;;;;;;;;;;;9.79;51.74;90539.41;2068446;69;20050;-76
2022/04/01 10:36:14;;;;;;;;;;;;;;;9.52;52.19;90538.66;2068437;69;20049;-74
2022/04/01 10:38:39;;;;;;;;;;;;;;;8.75;53.83;90536.97;2055069;70;20441;-75
2022/04/01 10:41:06;;;;;;;;;;;;;;;9.29;52.42;90540.06;2055069;70;20524;-75
2022/04/01 10:43:32;;;;;;;;;;;;;;;9.66;53.79;90546.78;2055288;70;20070;-74
2022/04/01 10:46:00;;;;;;;;;;;;;;;10.12;51.46;90538.94;2054265;70;20057;-73
2022/04/01 10:51:41;;;;;;;;;;;;;;;10.04;52.09;90538.03;2054365;70;20065;-74
2022/04/01 10:54:12;;;;;;;;;;;;;;;10.35;51.16;90540.31;2065051;69;20090;-74
2022/04/01 10:56:38;;;;;;;;;;;;;;;9.87;50.01;90546.00;2055198;70;20084;-73
2022/04/01 10:59:07;;;;;;;;;;;;;;;10.18;51.76;90547.56;2054792;70;20061;-74
2022/04/01 11:01:34;;;;;;;;;;;;;;;9.08;52.40;90552.75;2054792;70;20549;-73
2022/04/01 11:04:09;;;;;;;;;;;;;;;10.14;51.00;90555.88;2054720;69;20046;-74
2022/04/01 11:06:49;;;;;;;;;;;;;;;9.76;50.31;90552.72;2054818;70;20066;-73
2022/04/01 11:09:34;;;;;;;;;;;;;;;9.43;51.11;90551.72;2054726;70;20474;-73
2022/04/01 11:12:15;;;;;;;;;;;;;;;9.73;50.76;90556.09;2054769;70;20499;-74
2022/04/01 11:14:56;;;;;;;;;;;;;;;10.28;50.00;90561.22;2054670;70;20502;-73
2022/04/01 11:17:45;;;;;;;;;;;;;;;9.32;51.29;90561.22;2054896;70;20086;-74
2022/04/01 11:20:14;;;;;;;;;;;;;;;9.52;50.82;90558.31;2055356;69;20456;-75
2022/04/01 11:23:00;;;;;;;;;;;;;;;9.62;51.90;90555.06;2054801;70;20519;-73
2022/04/01 11:25:31;;;;;;;;;;;;;;;9.65;51.24;90562.19;2054860;70;20588;-72
2022/04/01 11:27:56;;;;;;;;;;;;;;;9.42;51.03;90558.72;2054779;70;20107;-74
2022/04/01 11:30:24;;;;;;;;;;;;;;;10.25;50.52;90554.09;2054904;70;20078;-75
2022/04/01 11:33:06;;;;;;;;;;;;;;;10.36;49.69;90553.00;2054864;70;20046;-75
2022/04/01 11:35:33;;;;;;;;;;;;;;;9.57;50.45;90562.66;2054904;69;20058;-74
2022/04/01 11:38:01;;;;;;;;;;;;;;;10.17;49.79;90556.66;2067654;69;20078;-74
2022/04/01 11:40:27;;;;;;;;;;;;;;;10.62;48.82;90558.59;2054330;70;20093;-74
2022/04/01 11:43:02;;;;;;;;;;;;;;;9.61;49.16;90557.16;2054225;70;20079;-76
2022/04/01 11:45:29;;;;;;;;;;;;;;;10.51;47.86;90553.38;2054576;70;20176;-74
2022/04/01 11:47:54;;;;;;;;;;;;;;;10.61;46.86;90550.84;2054669;70;20529;-72
2022/04/01 11:50:24;;;;;;;;;;;;;;;9.95;47.71;90553.94;2067720;69;20538;-74
2022/04/01 11:52:57;;;;;;;;;;;;;;;10.24;47.39;90554.75;2054164;69;20073;-72
2022/04/01 11:55:27;;;;;;;;;;;;;;;10.29;46.91;90548.59;2067502;69;20475;-75
2022/04/01 11:57:54;;;;;;;;;;;;;;;10.56;46.43;90549.28;2054792;69;20058;-74
2022/04/01 12:00:20;;;;;;;;;;;;;;;11.07;46.44;90559.03;2058034;69;20066;-73
2022/04/01 12:02:47;;;;;;;;;;;;;;;9.86;45.08;90557.91;2058045;69;20053;-73
2022/04/01 12:05:13;;;;;;;;;;;;;;;9.64;46.71;90557.97;2058064;69;20193;-74
2022/04/01 12:10:25;;;;;;;;;;;;;;;10.30;46.49;90552.81;2058582;69;20161;-74
2022/04/01 12:12:54;;;;;;;;;;;;;;;10.03;46.75;90547.81;2058655;69;20050;-73
2022/04/01 12:15:39;;;;;;;;;;;;;;;10.13;45.18;90550.94;2058605;69;20527;-73
2022/04/01 12:18:10;;;;;;;;;;;;;;;10.68;45.77;90558.06;2071286;69;20070;-74
2022/04/01 12:20:39;;;;;;;;;;;;;;;9.47;46.36;90553.22;2058711;69;20607;-75
2022/04/01 12:23:06;;;;;;;;;;;;;;;8.89;47.65;90554.28;2058759;69;20084;-72
2022/04/01 12:25:32;;;;;;;;;;;;;;;9.13;48.14;90556.41;2058473;69;20064;-72
2022/04/01 12:27:59;;;;;;;;;;;;;;;9.31;47.80;90554.19;2057898;69;20058;-72
2022/04/01 12:30:27;;;;;;;;;;;;;;;9.93;47.12;90565.13;2058722;69;20157;-73
2022/04/01 12:32:54;;;;;;;;;;;;;;;9.93;46.88;90562.31;2057862;69;20161;-76
2022/04/01 12:35:19;;;;;;;;;;;;;;;9.86;46.70;90566.34;2058526;69;20145;-79
2022/04/01 12:37:45;;;;;;;;;;;;;;;9.42;47.90;90560.81;2071350;69;20097;-74
2022/04/01 12:40:10;;;;;;;;;;;;;;;9.80;47.16;90566.84;2058878;69;20064;-74
2022/04/01 12:42:36;;;;;;;;;;;;;;;9.74;47.66;90569.50;2071478;69;20081;-74
2022/04/01 12:45:07;;;;;;;;;;;;;;;9.58;47.51;90566.94;2058917;69;20078;-75
2022/04/01 12:47:35;;;;;;;;;;;;;;;9.66;47.47;90561.53;2059897;69;20069;-74
2022/04/01 12:50:00;;;;;;;;;;;;;;;8.89;48.74;90564.78;2059443;69;20050;-79
2022/04/01 12:52:27;;;;;;;;;;;;;;;8.91;49.23;90559.22;2059323;69;20086;-75
2022/04/01 12:55:00;;;;;;;;;;;;;;;9.01;48.35;90559.53;2059676;69;20073;-86
2022/04/01 12:57:27;;;;;;;;;;;;;;;9.20;48.73;90574.16;2059236;69;20206;-86
2022/04/01 12:59:56;;;;;;;;;;;;;;;9.34;48.76;90568.97;2072091;69;20153;-75
2022/04/01 13:02:23;;;;;;;;;;;;;;;9.12;48.92;90569.72;2059121;69;20425;-75
2022/04/01 13:04:50;;;;;;;;;;;;;;;8.84;48.54;90566.00;2059101;69;20046;-74
2022/04/01 13:07:18;;;;;;;;;;;;;;;9.05;48.88;90567.38;2059041;69;20064;-75
2022/04/01 13:09:51;;;;;;;;;;;;;;;9.45;47.98;90565.13;2072133;69;20149;-74
2022/04/01 13:12:20;;;;;;;;;;;;;;;9.71;47.36;90570.78;2059188;69;20046;-73
2022/04/01 13:14:54;;;;;;;;;;;;;;;9.45;46.99;90576.34;2059033;69;20050;-74
2022/04/01 13:17:19;;;;;;;;;;;;;;;8.98;48.02;90576.97;2058930;69;20050;-74
2022/04/01 13:19:45;;;;;;;;;;;;;;;9.29;48.12;90578.66;2072132;69;20061;-75
2022/04/01 13:22:11;;;;;;;;;;;;;;;9.00;48.24;90577.03;2059124;69;20496;-75